Time;durP1;ratioP1;P1;durP2;ratioP2;P2;SDS_P1;SDS_P2;PMS_P1;PMS_P2;Temp;Humidity;BMP_temperature;BMP_pressure;BME280_temperature;BME280_humidity;BME280_pressure;Samples;Min_cycle;Max_cycle;Signal;HPM_P1;HPM_P2
2022/02/12 00:00:11;;;;;;;25.20;6.75;;;;;;;-2.34;96.93;101070.16;5013224;28;20061;-59
2022/02/12 00:02:37;;;;;;;29.02;6.25;;;;;;;-2.54;95.15;101064.59;5011457;28;20025;-59
2022/02/12 00:05:03;;;;;;;29.25;6.22;;;;;;;-2.52;94.56;101061.81;5011960;28;20056;-59
2022/02/12 00:07:28;;;;;;;42.95;12.10;;;;;;;-2.84;94.14;101058.00;5013348;28;20018;-59
2022/02/12 00:09:54;;;;;;;59.22;15.18;;;;;;;-2.91;95.50;101062.00;5019329;28;20395;-59
2022/02/12 00:12:19;;;;;;;55.35;13.45;;;;;;;-2.99;95.54;101069.59;5012363;28;20487;-59
2022/02/12 00:14:44;;;;;;;69.82;17.02;;;;;;;-3.08;95.93;101057.13;5013144;28;20029;-59
2022/02/12 00:17:10;;;;;;;85.13;22.40;;;;;;;-3.21;96.23;101065.03;5020340;28;20061;-59
2022/02/12 00:19:35;;;;;;;138.63;34.95;;;;;;;-3.16;97.75;101072.59;5018236;28;20124;-59
2022/02/12 00:22:01;;;;;;;60.22;16.30;;;;;;;-3.25;97.21;101074.06;5017846;28;20052;-59
2022/02/12 00:24:26;;;;;;;52.33;13.52;;;;;;;-3.30;97.24;101069.13;5012352;28;20021;-60
2022/02/12 00:26:51;;;;;;;27.50;8.27;;;;;;;-3.28;97.64;101075.13;5017998;28;20099;-59
2022/02/12 00:29:17;;;;;;;43.03;11.95;;;;;;;-2.92;97.42;101075.22;5011168;28;20022;-59
2022/02/12 00:31:42;;;;;;;36.85;8.23;;;;;;;-2.97;97.81;101067.72;5030396;28;20045;-59
2022/02/12 00:34:08;;;;;;;19.42;5.90;;;;;;;-2.98;98.25;101066.00;5011077;28;20029;-59
2022/02/12 00:36:33;;;;;;;24.08;6.88;;;;;;;-2.90;98.63;101076.78;5011846;28;20030;-59
2022/02/12 00:38:59;;;;;;;36.30;7.43;;;;;;;-2.83;99.27;101064.91;5012465;28;20038;-59
2022/02/12 00:41:24;;;;;;;37.17;5.72;;;;;;;-2.70;99.11;101054.34;5011211;28;20087;-59
2022/02/12 00:43:49;;;;;;;36.70;7.15;;;;;;;-2.79;98.74;101057.66;5011895;28;20021;-59
2022/02/12 00:46:15;;;;;;;26.77;7.38;;;;;;;-2.76;99.42;101059.22;5016814;28;20034;-59
2022/02/12 00:48:40;;;;;;;21.77;5.85;;;;;;;-2.80;98.97;101068.25;5011048;28;20254;-60
2022/02/12 00:51:06;;;;;;;29.27;6.50;;;;;;;-2.91;99.40;101062.00;5019183;28;20034;-59
2022/02/12 00:53:31;;;;;;;38.88;6.95;;;;;;;-2.97;98.96;101057.22;5011509;28;20041;-59
2022/02/12 00:55:57;;;;;;;21.35;5.43;;;;;;;-2.79;99.85;101059.47;5011769;28;20042;-59
2022/02/12 00:58:22;;;;;;;23.98;5.68;;;;;;;-2.88;98.96;101046.03;5012613;28;20399;-59
2022/02/12 01:00:48;;;;;;;21.83;5.45;;;;;;;-2.91;99.09;101045.44;5010866;28;20392;-59
2022/02/12 01:03:13;;;;;;;29.40;6.43;;;;;;;-2.94;99.32;101033.38;5010684;28;20030;-59
2022/02/12 01:05:39;;;;;;;27.00;6.88;;;;;;;-2.81;99.21;101033.31;5010074;28;20050;-59
2022/02/12 01:08:04;;;;;;;32.42;6.22;;;;;;;-2.91;98.96;101041.00;5024990;28;20034;-59
2022/02/12 01:10:32;;;;;;;25.02;5.90;;;;;;;-2.96;98.94;101042.31;5011327;28;20121;-59
2022/02/12 01:12:58;;;;;;;26.98;8.55;;;;;;;-3.16;97.89;101041.94;5011851;28;20109;-59
2022/02/12 01:15:23;;;;;;;25.85;8.63;;;;;;;-3.33;97.86;101044.91;5010737;28;20073;-59
2022/02/12 01:17:48;;;;;;;29.08;9.40;;;;;;;-3.53;98.65;101035.84;5010279;28;20029;-59
2022/02/12 01:20:14;;;;;;;29.25;8.68;;;;;;;-3.76;99.48;101032.19;5010256;28;20395;-59
2022/02/12 01:22:40;;;;;;;32.90;10.27;;;;;;;-3.65;100.00;101031.44;5010866;28;20548;-59
2022/02/12 01:25:06;;;;;;;36.45;10.18;;;;;;;-3.34;100.00;101015.25;5011909;28;20083;-59
2022/02/12 01:27:32;;;;;;;37.67;8.55;;;;;;;-3.36;100.00;101017.13;5021613;28;20080;-59
2022/02/12 01:29:57;;;;;;;28.92;6.82;;;;;;;-3.40;100.00;101028.78;5015058;28;20025;-60
2022/02/12 01:32:23;;;;;;;28.73;7.47;;;;;;;-3.25;100.00;101017.19;5009882;28;20038;-58
2022/02/12 01:34:48;;;;;;;23.00;7.32;;;;;;;-3.41;100.00;101019.25;5017004;28;20719;-58
2022/02/12 01:37:14;;;;;;;35.28;7.75;;;;;;;-3.56;99.43;101022.94;5010653;28;20049;-58
2022/02/12 01:39:40;;;;;;;27.27;7.57;;;;;;;-3.75;98.86;101023.38;5009747;28;20029;-58
2022/02/12 01:42:05;;;;;;;22.48;7.40;;;;;;;-3.99;99.23;101026.75;5010730;28;20048;-59
2022/02/12 01:44:39;;;;;;;19.02;8.00;;;;;;;-4.00;100.00;101027.69;5014271;28;20040;-59
2022/02/12 01:47:06;;;;;;;25.92;7.88;;;;;;;-4.09;100.00;101017.00;5018765;28;20496;-59
2022/02/12 01:49:32;;;;;;;18.40;7.43;;;;;;;-4.00;100.00;101030.31;5010310;28;20470;-58
2022/02/12 01:51:57;;;;;;;20.92;6.30;;;;;;;-4.16;100.00;101032.28;5010452;28;20049;-58
2022/02/12 01:54:24;;;;;;;22.40;8.20;;;;;;;-4.15;100.00;101026.09;5010804;28;20436;-59
2022/02/12 01:56:49;;;;;;;32.72;7.05;;;;;;;-3.98;100.00;101028.41;5020970;28;20077;-59
2022/02/12 01:59:15;;;;;;;19.38;6.97;;;;;;;-4.09;100.00;101035.31;5010574;28;20448;-59
2022/02/12 02:01:40;;;;;;;21.88;6.75;;;;;;;-4.21;100.00;101037.00;5024658;28;20539;-59
2022/02/12 02:04:06;;;;;;;35.40;7.30;;;;;;;-4.17;100.00;101034.09;5011360;28;20029;-59
2022/02/12 02:06:32;;;;;;;34.83;8.32;;;;;;;-4.29;100.00;101034.91;4996110;28;20518;-59
2022/02/12 02:08:58;;;;;;;10.93;5.45;;;;;;;-4.25;100.00;101031.13;5010389;28;20259;-59
2022/02/12 02:11:23;;;;;;;28.00;6.13;;;;;;;-4.21;100.00;101029.97;5014565;28;20049;-58
2022/02/12 02:13:49;;;;;;;15.35;5.40;;;;;;;-4.13;100.00;101030.28;5015408;28;20022;-58
2022/02/12 02:16:14;;;;;;;12.50;5.22;;;;;;;-4.21;100.00;101016.88;5005581;28;20045;-59
2022/02/12 02:18:40;;;;;;;20.25;6.45;;;;;;;-4.16;100.00;101022.66;5010730;28;20057;-58
2022/02/12 02:21:06;;;;;;;27.75;6.65;;;;;;;-4.26;100.00;101018.97;5008480;28;20204;-58
2022/02/12 02:23:36;;;;;;;43.55;8.23;;;;;;;-4.16;100.00;101020.03;5015828;28;20084;-59
2022/02/12 02:26:02;;;;;;;31.42;6.75;;;;;;;-4.30;100.00;101017.50;5003096;28;20181;-59
2022/02/12 02:28:28;;;;;;;29.58;9.05;;;;;;;-3.97;100.00;101013.53;5009147;28;20132;-58
2022/02/12 02:30:53;;;;;;;23.75;8.25;;;;;;;-3.92;100.00;100995.72;5014134;28;20591;-58
2022/02/12 02:33:19;;;;;;;24.40;9.15;;;;;;;-3.70;100.00;100998.53;5009011;28;20377;-58
2022/02/12 02:35:45;;;;;;;30.90;7.97;;;;;;;-3.86;100.00;100997.09;5024490;28;20034;-58
2022/02/12 02:38:13;;;;;;;19.52;7.15;;;;;;;-4.00;100.00;100991.00;5023953;28;20455;-59
2022/02/12 02:40:38;;;;;;;26.98;8.27;;;;;;;-4.15;100.00;100985.03;5017021;28;20424;-58
2022/02/12 02:43:04;;;;;;;25.58;7.65;;;;;;;-3.96;100.00;100989.03;5011224;28;20042;-59
2022/02/12 02:45:29;;;;;;;28.42;7.20;;;;;;;-4.07;100.00;100981.88;5009438;28;20073;-59
2022/02/12 02:47:59;;;;;;;21.65;6.65;;;;;;;-4.20;100.00;100987.13;5014692;28;20096;-59
2022/02/12 02:56:02;;;;;;;20.90;6.85;;;;;;;-4.44;100.00;100968.69;5017989;28;20044;-59
2022/02/12 02:58:38;;;;;;;23.17;6.97;;;;;;;-4.49;100.00;100962.94;5010092;28;20049;-59
2022/02/12 03:01:08;;;;;;;22.35;6.80;;;;;;;-4.73;100.00;100962.78;5013462;28;20046;-59
2022/02/12 03:03:34;;;;;;;23.20;7.40;;;;;;;-4.80;100.00;100959.72;5009639;28;20022;-59
2022/02/12 03:06:00;;;;;;;38.78;7.88;;;;;;;-4.64;100.00;100956.94;5008951;28;20200;-59
2022/02/12 03:08:26;;;;;;;22.65;6.65;;;;;;;-4.58;100.00;100951.28;5020154;28;20029;-59
2022/02/12 03:10:51;;;;;;;26.27;6.95;;;;;;;-4.68;100.00;100955.47;5009186;28;20048;-59
2022/02/12 03:13:17;;;;;;;24.92;7.82;;;;;;;-4.82;100.00;100955.53;5010525;28;20492;-59
2022/02/12 03:15:42;;;;;;;25.35;7.35;;;;;;;-4.83;100.00;100946.84;5016322;28;20122;-58
2022/02/12 03:18:08;;;;;;;29.33;6.53;;;;;;;-4.82;100.00;100950.31;5008872;28;20045;-59
2022/02/12 03:20:33;;;;;;;24.63;6.78;;;;;;;-4.93;100.00;100960.66;5012986;28;20049;-59
2022/02/12 03:22:59;;;;;;;20.92;6.60;;;;;;;-5.01;100.00;100954.13;5009435;28;20049;-59
2022/02/12 03:25:24;;;;;;;22.27;6.30;;;;;;;-4.89;100.00;100947.28;5009617;28;20129;-59
2022/02/12 03:27:54;;;;;;;21.00;6.95;;;;;;;-4.59;100.00;100954.88;5008623;28;20701;-59
2022/02/12 03:30:20;;;;;;;21.92;5.38;;;;;;;-4.91;100.00;100964.00;5012207;28;20041;-59
2022/02/12 03:32:45;;;;;;;19.65;6.28;;;;;;;-4.72;100.00;100959.22;5013873;28;20084;-59
2022/02/12 03:35:11;;;;;;;29.42;6.90;;;;;;;-4.88;100.00;100961.19;5013566;28;20648;-58
2022/02/12 03:37:37;;;;;;;20.80;6.82;;;;;;;-4.90;100.00;100960.44;5019348;28;20379;-59
2022/02/12 03:40:03;;;;;;;24.00;6.72;;;;;;;-4.92;100.00;100951.84;5012046;28;20041;-59
2022/02/12 03:42:28;;;;;;;28.65;7.18;;;;;;;-4.97;100.00;100948.69;5013517;28;20033;-59
2022/02/12 03:44:54;;;;;;;23.23;7.03;;;;;;;-4.62;100.00;100941.13;5022284;28;20041;-58
2022/02/12 03:47:19;;;;;;;30.17;6.60;;;;;;;-4.48;100.00;100935.81;5012124;28;20399;-58
2022/02/12 03:49:44;;;;;;;23.92;6.90;;;;;;;-4.65;100.00;100936.94;5012701;28;20036;-58
2022/02/12 03:52:10;;;;;;;37.85;7.90;;;;;;;-4.46;100.00;100939.16;5012000;28;20041;-58
2022/02/12 03:54:35;;;;;;;35.00;7.47;;;;;;;-4.41;100.00;100931.00;5017517;28;20042;-58
2022/02/12 03:57:01;;;;;;;33.38;7.03;;;;;;;-4.19;100.00;100919.91;5011975;28;20042;-58
2022/02/12 03:59:26;;;;;;;31.75;7.03;;;;;;;-4.66;100.00;100922.19;5013631;28;20026;-58
2022/02/12 04:01:51;;;;;;;43.33;8.73;;;;;;;-4.87;100.00;100915.75;5011365;28;20190;-58
2022/02/12 04:04:17;;;;;;;24.80;7.68;;;;;;;-4.83;100.00;100914.63;5017372;28;20041;-58
2022/02/12 04:06:42;;;;;;;24.23;7.43;;;;;;;-4.97;100.00;100906.84;5011678;28;20056;-58
2022/02/12 04:09:08;;;;;;;31.17;7.45;;;;;;;-5.17;100.00;100901.16;5011826;28;20033;-59
2022/02/12 04:11:33;;;;;;;39.25;7.78;;;;;;;-5.21;100.00;100895.31;5014176;28;20108;-58
2022/02/12 04:13:58;;;;;;;32.00;7.38;;;;;;;-5.03;100.00;100890.63;5022116;28;20025;-58
2022/02/12 04:16:24;;;;;;;26.30;7.55;;;;;;;-5.12;100.00;100893.84;5020477;28;20053;-58
2022/02/12 04:18:49;;;;;;;22.40;7.25;;;;;;;-5.16;100.00;100892.38;5010348;28;20030;-58
2022/02/12 04:21:15;;;;;;;21.63;6.72;;;;;;;-5.21;100.00;100884.00;5011496;28;20042;-58
2022/02/12 04:23:40;;;;;;;25.02;7.72;;;;;;;-5.20;100.00;100885.69;5022172;28;20097;-58
2022/02/12 04:26:08;;;;;;;27.38;7.05;;;;;;;-5.29;100.00;100888.88;5011681;28;20507;-58
2022/02/12 04:28:36;;;;;;;34.92;8.15;;;;;;;-5.37;100.00;100889.38;5013169;28;20072;-58
2022/02/12 04:31:05;;;;;;;23.90;6.93;;;;;;;-5.13;100.00;100892.19;4996504;28;20041;-58
2022/02/12 04:33:31;;;;;;;35.95;9.05;;;;;;;-5.03;100.00;100893.25;5011255;28;20060;-58
2022/02/12 04:35:56;;;;;;;44.60;11.70;;;;;;;-4.88;100.00;100893.19;5026099;28;20038;-58
2022/02/12 04:38:22;;;;;;;29.05;10.00;;;;;;;-5.07;100.00;100899.59;5011620;28;20497;-58
2022/02/12 04:40:47;;;;;;;26.70;9.30;;;;;;;-4.92;100.00;100899.53;5026802;28;20425;-58
2022/02/12 04:43:13;;;;;;;33.53;9.90;;;;;;;-5.29;100.00;100899.34;5011112;28;20507;-58
2022/02/12 04:45:38;;;;;;;27.17;9.57;;;;;;;-5.20;100.00;100893.50;5011241;28;20042;-58
2022/02/12 04:48:04;;;;;;;32.85;12.43;;;;;;;-5.09;100.00;100880.59;5014898;28;20920;-58
2022/02/12 04:50:29;;;;;;;37.17;11.10;;;;;;;-4.78;100.00;100882.00;5021442;28;20041;-58
2022/02/12 04:52:56;;;;;;;43.05;11.20;;;;;;;-5.23;100.00;100891.09;5011997;28;20029;-58
2022/02/12 04:55:21;;;;;;;36.10;10.77;;;;;;;-4.70;100.00;100891.94;5011130;28;20050;-58
2022/02/12 04:57:47;;;;;;;27.30;9.18;;;;;;;-5.26;100.00;100883.47;5023261;28;20444;-58
2022/02/12 05:00:12;;;;;;;49.35;10.73;;;;;;;-4.74;100.00;100887.88;5011606;28;20030;-58
2022/02/12 05:02:40;;;;;;;33.63;10.85;;;;;;;-5.05;100.00;100895.13;5017685;28;20029;-58
2022/02/12 05:05:06;;;;;;;31.83;9.90;;;;;;;-5.40;100.00;100899.22;5010992;28;20117;-58
2022/02/12 05:07:31;;;;;;;27.33;8.48;;;;;;;-5.70;100.00;100893.22;5014246;28;20042;-58
2022/02/12 05:09:57;;;;;;;28.90;7.82;;;;;;;-5.83;100.00;100894.09;5015348;28;20424;-58
2022/02/12 05:12:22;;;;;;;41.20;11.07;;;;;;;-5.91;100.00;100894.59;5013594;28;20543;-58
2022/02/12 05:14:48;;;;;;;34.88;9.98;;;;;;;-6.01;100.00;100888.28;5012050;28;20040;-58
2022/02/12 05:17:13;;;;;;;37.75;11.93;;;;;;;-5.93;100.00;100892.06;5010592;28;20030;-58
2022/02/12 05:19:38;;;;;;;50.00;11.07;;;;;;;-5.77;100.00;100888.47;5011069;28;20041;-58
2022/02/12 05:22:04;;;;;;;27.17;10.00;;;;;;;-5.30;100.00;100887.22;5031205;28;20061;-58
2022/02/12 05:24:29;;;;;;;37.47;10.35;;;;;;;-5.07;100.00;100876.06;5016911;28;20025;-58
2022/02/12 05:26:55;;;;;;;33.97;10.75;;;;;;;-5.38;100.00;100884.28;5010303;28;20057;-58
2022/02/12 05:29:20;;;;;;;24.60;9.70;;;;;;;-5.05;100.00;100879.44;5013562;28;20034;-58
2022/02/12 05:31:46;;;;;;;48.00;11.40;;;;;;;-5.27;100.00;100880.00;5010013;28;20053;-58
2022/02/12 05:34:11;;;;;;;39.70;12.15;;;;;;;-4.83;100.00;100878.00;5010350;28;20037;-58
2022/02/12 05:36:36;;;;;;;49.55;12.73;;;;;;;-4.81;100.00;100871.72;5013969;28;20096;-58
2022/02/12 05:39:05;;;;;;;37.78;11.77;;;;;;;-4.80;100.00;100862.09;5010187;28;20034;-58
2022/02/12 05:41:31;;;;;;;44.70;12.57;;;;;;;-4.82;100.00;100866.59;5009792;28;20049;-58
2022/02/12 05:43:57;;;;;;;35.05;12.07;;;;;;;-4.92;100.00;100870.78;5011591;28;20487;-58
2022/02/12 05:46:22;;;;;;;36.80;11.73;;;;;;;-5.33;100.00;100858.66;5014959;28;20041;-58
2022/02/12 05:48:48;;;;;;;39.47;11.75;;;;;;;-5.59;100.00;100853.38;5013213;28;20096;-58
2022/02/12 05:51:18;;;;;;;32.60;11.52;;;;;;;-5.90;100.00;100855.31;5015483;28;20100;-58
2022/02/12 05:53:44;;;;;;;35.90;9.52;;;;;;;-5.93;100.00;100849.44;5019338;28;20125;-58
2022/02/12 05:56:10;;;;;;;30.15;9.38;;;;;;;-5.96;100.00;100847.06;5010446;28;20125;-58
2022/02/12 05:58:36;;;;;;;32.42;9.63;;;;;;;-6.14;100.00;100843.81;5009477;28;20099;-58
2022/02/12 06:01:01;;;;;;;33.13;9.85;;;;;;;-6.31;100.00;100850.09;5008902;28;20049;-58
2022/02/12 06:03:26;;;;;;;38.53;10.50;;;;;;;-6.35;100.00;100849.44;5009613;28;20033;-59
2022/02/12 06:05:52;;;;;;;32.88;9.45;;;;;;;-6.35;100.00;100840.78;5010680;28;20038;-59
2022/02/12 06:08:17;;;;;;;28.70;10.75;;;;;;;-6.19;100.00;100843.25;5012744;28;20034;-59
2022/02/12 06:10:43;;;;;;;27.17;10.05;;;;;;;-6.38;100.00;100848.81;5013861;28;20779;-60
2022/02/12 06:13:08;;;;;;;27.17;9.57;;;;;;;-6.41;100.00;100849.81;5016063;28;20083;-60
2022/02/12 06:15:36;;;;;;;20.40;8.88;;;;;;;-6.50;100.00;100839.94;5009653;28;20116;-59
2022/02/12 06:18:02;;;;;;;29.95;10.40;;;;;;;-6.57;100.00;100849.06;5009305;28;20030;-59
2022/02/12 06:20:28;;;;;;;22.60;8.65;;;;;;;-6.55;100.00;100842.81;5013497;28;20040;-60
2022/02/12 06:22:53;;;;;;;25.52;8.40;;;;;;;-6.55;100.00;100839.38;5010192;28;20042;-58
2022/02/12 06:25:19;;;;;;;17.17;7.47;;;;;;;-6.49;100.00;100844.22;5012168;28;20041;-58
2022/02/12 06:27:46;;;;;;;22.35;8.25;;;;;;;-6.44;100.00;100847.41;5013245;28;20049;-59
2022/02/12 06:30:11;;;;;;;15.63;7.78;;;;;;;-5.96;100.00;100839.25;5009941;28;20034;-57
2022/02/12 06:32:37;;;;;;;29.25;8.18;;;;;;;-6.16;100.00;100840.50;5010376;28;20053;-58
2022/02/12 06:35:08;;;;;;;23.38;8.27;;;;;;;-6.17;100.00;100842.25;5017601;28;20045;-59
2022/02/12 06:37:34;;;;;;;28.25;8.88;;;;;;;-6.01;100.00;100847.34;5013474;28;20109;-59
2022/02/12 06:39:59;;;;;;;25.02;9.25;;;;;;;-5.98;100.00;100838.50;5010640;28;20045;-59
2022/02/12 06:42:25;;;;;;;21.85;9.25;;;;;;;-5.91;100.00;100837.97;5009312;28;20045;-57
2022/02/12 06:44:50;;;;;;;41.08;10.27;;;;;;;-5.91;100.00;100835.38;5009231;28;20021;-59
2022/02/12 06:47:16;;;;;;;39.20;10.55;;;;;;;-5.87;100.00;100839.44;5013520;28;20741;-59
2022/02/12 06:49:41;;;;;;;35.67;11.30;;;;;;;-5.94;100.00;100825.16;5017269;28;20399;-59
2022/02/12 06:52:07;;;;;;;26.60;10.50;;;;;;;-5.94;100.00;100827.75;5020189;28;20045;-60
2022/02/12 06:54:32;;;;;;;27.05;10.43;;;;;;;-5.85;100.00;100837.56;5011339;28;20049;-59
2022/02/12 06:56:58;;;;;;;33.75;12.25;;;;;;;-5.56;100.00;100826.22;5009365;28;20049;-59
2022/02/12 06:59:24;;;;;;;35.13;12.00;;;;;;;-5.80;100.00;100831.22;5004457;28;20518;-59
2022/02/12 07:01:49;;;;;;;41.15;12.35;;;;;;;-5.76;100.00;100828.31;5007242;28;20484;-58
2022/02/12 07:04:15;;;;;;;50.33;12.55;;;;;;;-5.57;100.00;100834.97;5018681;28;20377;-58
2022/02/12 07:06:40;;;;;;;57.22;11.45;;;;;;;-5.32;100.00;100839.44;5024045;28;20053;-58
2022/02/12 07:09:06;;;;;;;72.47;12.63;;;;;;;-5.09;100.00;100836.16;5020904;28;20041;-58
2022/02/12 07:11:32;;;;;;;62.08;13.13;;;;;;;-5.36;100.00;100835.34;5013223;28;21805;-58
2022/02/12 07:13:58;;;;;;;71.15;13.15;;;;;;;-5.13;100.00;100823.38;5017362;28;20038;-58
2022/02/12 07:16:23;;;;;;;62.97;11.95;;;;;;;-5.08;100.00;100822.13;5022219;28;20112;-58
2022/02/12 07:18:49;;;;;;;57.10;14.80;;;;;;;-5.31;100.00;100833.28;5019434;28;20777;-58
2022/02/12 07:21:15;;;;;;;54.25;13.45;;;;;;;-5.11;100.00;100830.19;5016938;28;20141;-58
2022/02/12 07:23:40;;;;;;;48.42;11.63;;;;;;;-5.07;100.00;100831.63;5020882;28;20840;-58
2022/02/12 07:26:06;;;;;;;68.57;12.55;;;;;;;-5.12;100.00;100843.34;5013123;28;20037;-58
2022/02/12 07:28:32;;;;;;;36.38;11.10;;;;;;;-4.86;100.00;100837.22;5022427;28;20037;-58
2022/02/12 07:30:58;;;;;;;42.55;12.27;;;;;;;-5.06;100.00;100830.69;5025476;28;20104;-58
2022/02/12 07:33:26;;;;;;;54.95;12.18;;;;;;;-5.04;100.00;100831.44;5014593;28;20099;-58
2022/02/12 07:35:52;;;;;;;69.63;12.75;;;;;;;-5.24;100.00;100831.94;5011132;28;20041;-59
2022/02/12 07:38:17;;;;;;;59.97;16.63;;;;;;;-4.98;100.00;100827.56;5008483;28;20465;-59
2022/02/12 07:40:43;;;;;;;71.95;14.65;;;;;;;-5.06;100.00;100820.25;5008094;28;20038;-59
2022/02/12 07:43:08;;;;;;;70.40;16.33;;;;;;;-4.75;100.00;100825.16;5013198;28;20054;-59
2022/02/12 07:45:34;;;;;;;86.60;18.58;;;;;;;-4.69;100.00;100827.34;5012681;28;20069;-58
2022/02/12 07:47:59;;;;;;;71.05;16.20;;;;;;;-4.66;100.00;100833.22;5016768;28;20025;-59
2022/02/12 07:50:25;;;;;;;46.50;11.73;;;;;;;-4.72;100.00;100831.03;5008783;28;20076;-59
2022/02/12 07:52:51;;;;;;;80.72;13.35;;;;;;;-4.79;100.00;100837.63;5008736;28;20041;-58
2022/02/12 07:55:17;;;;;;;38.15;9.95;;;;;;;-4.59;100.00;100842.34;5007954;28;20069;-57
2022/02/12 07:57:42;;;;;;;101.07;9.88;;;;;;;-4.65;100.00;100834.06;5008321;28;20030;-58
2022/02/12 08:00:08;;;;;;;101.10;10.02;;;;;;;-4.63;100.00;100832.19;5008801;28;20038;-58
2022/02/12 08:02:34;;;;;;;109.55;10.98;;;;;;;-4.92;100.00;100832.38;5008093;28;20034;-57
2022/02/12 08:04:59;;;;;;;67.20;10.88;;;;;;;-4.72;100.00;100833.63;5009101;28;20038;-58
2022/02/12 08:07:27;;;;;;;166.25;12.15;;;;;;;-4.66;100.00;100830.63;5011387;28;20067;-58
2022/02/12 08:09:53;;;;;;;113.40;11.05;;;;;;;-4.88;100.00;100835.63;5008909;28;20033;-58
2022/02/12 08:12:19;;;;;;;107.40;11.15;;;;;;;-5.07;100.00;100831.63;5012268;28;20045;-58
2022/02/12 08:14:56;;;;;;;78.88;10.75;;;;;;;-4.91;100.00;100828.00;5021246;28;20040;-57
2022/02/12 08:17:22;;;;;;;73.65;11.65;;;;;;;-4.84;100.00;100826.63;5013598;28;20049;-58
2022/02/12 08:19:48;;;;;;;78.78;11.27;;;;;;;-4.57;100.00;100830.00;5012492;28;20030;-57
2022/02/12 08:22:14;;;;;;;98.70;14.52;;;;;;;-4.76;100.00;100826.97;5016592;28;20049;-58
2022/02/12 08:24:40;;;;;;;91.95;14.05;;;;;;;-4.76;100.00;100824.34;5011866;28;20440;-58
2022/02/12 08:27:05;;;;;;;63.63;16.33;;;;;;;-4.65;100.00;100826.22;5011691;28;20046;-58
2022/02/12 08:29:31;;;;;;;85.35;17.10;;;;;;;-4.71;100.00;100817.00;5026904;28;20428;-58
2022/02/12 08:31:57;;;;;;;55.75;15.02;;;;;;;-4.42;100.00;100803.69;5021670;28;20056;-58
2022/02/12 08:34:23;;;;;;;74.30;13.50;;;;;;;-4.67;100.00;100815.84;5012569;28;20026;-58
2022/02/12 08:36:50;;;;;;;59.30;12.77;;;;;;;-4.82;100.00;100819.50;5015542;28;20056;-58
2022/02/12 08:39:15;;;;;;;90.20;16.02;;;;;;;-4.12;100.00;100804.16;5011644;28;20056;-58
2022/02/12 08:41:40;;;;;;;38.38;12.48;;;;;;;-4.19;99.24;100804.69;5014086;28;20050;-58
2022/02/12 08:44:06;;;;;;;45.00;15.57;;;;;;;-4.04;98.65;100802.75;5011385;28;20029;-58
2022/02/12 08:46:31;;;;;;;32.75;13.93;;;;;;;-3.88;99.40;100800.69;5009352;28;20065;-59
2022/02/12 08:48:58;;;;;;;35.28;13.25;;;;;;;-3.79;98.57;100813.16;5011761;28;20030;-58
2022/02/12 08:51:24;;;;;;;40.25;14.15;;;;;;;-3.73;98.17;100802.22;5011529;28;20057;-58
2022/02/12 08:53:50;;;;;;;48.83;16.55;;;;;;;-3.47;97.93;100796.81;5011546;28;20049;-58
2022/02/12 08:56:15;;;;;;;45.20;14.15;;;;;;;-2.93;97.56;100791.00;5014993;28;20050;-59
2022/02/12 08:58:40;;;;;;;58.45;17.50;;;;;;;-2.32;94.80;100795.09;5016114;28;20774;-58
2022/02/12 09:01:06;;;;;;;66.30;17.58;;;;;;;-1.89;93.41;100794.31;5015070;28;20045;-59
2022/02/12 09:03:31;;;;;;;88.72;17.88;;;;;;;-1.90;94.17;100785.56;5011356;28;20060;-58
2022/02/12 09:05:58;;;;;;;45.00;17.77;;;;;;;-2.21;92.96;100784.56;5010882;28;20538;-58
2022/02/12 09:08:24;;;;;;;44.22;17.73;;;;;;;-2.05;92.93;100784.19;5021541;28;20090;-58
2022/02/12 09:10:49;;;;;;;58.35;15.23;;;;;;;-2.56;94.04;100782.09;5015839;28;20411;-58
2022/02/12 09:13:14;;;;;;;53.65;15.48;;;;;;;-2.45;93.30;100779.47;5024020;28;20034;-57
2022/02/12 09:15:40;;;;;;;84.80;17.85;;;;;;;-2.39;94.73;100779.81;5010575;28;20080;-59
2022/02/12 09:18:05;;;;;;;55.90;19.10;;;;;;;-2.08;93.12;100773.91;5011174;28;20619;-58
2022/02/12 09:20:31;;;;;;;35.35;16.40;;;;;;;-1.65;93.93;100779.16;5011122;28;20441;-59
2022/02/12 09:22:57;;;;;;;41.42;17.17;;;;;;;-2.02;91.16;100776.91;5010250;28;20093;-58
2022/02/12 09:25:22;;;;;;;57.90;24.90;;;;;;;-2.29;92.80;100773.84;5010404;28;20056;-58
2022/02/12 09:27:48;;;;;;;46.25;19.00;;;;;;;-2.14;93.26;100777.06;5010465;28;20037;-58
2022/02/12 09:30:13;;;;;;;45.17;21.23;;;;;;;-2.10;92.06;100773.19;5011105;28;20037;-58
2022/02/12 09:32:38;;;;;;;49.90;17.45;;;;;;;-2.08;91.83;100776.56;5010392;28;20022;-58
2022/02/12 09:35:04;;;;;;;44.30;14.25;;;;;;;-2.28;92.85;100772.88;5009952;28;20042;-58
2022/02/12 09:37:30;;;;;;;48.40;12.50;;;;;;;-2.05;93.29;100771.03;5010958;28;20042;-58
2022/02/12 09:39:55;;;;;;;42.30;13.00;;;;;;;-2.00;93.69;100774.13;5010990;28;20048;-58
2022/02/12 09:42:21;;;;;;;34.70;12.05;;;;;;;-1.88;95.63;100769.69;5010316;28;20069;-59
2022/02/12 09:44:46;;;;;;;59.45;12.23;;;;;;;-2.05;92.75;100771.88;5010685;28;20041;-58
2022/02/12 09:47:56;;;;;;;31.17;11.70;;;;;;;-1.96;94.74;100770.31;5020783;28;20566;-59
2022/02/12 09:50:22;;;;;;;38.55;10.73;;;;;;;-1.99;92.12;100768.75;5007357;28;20050;-58
2022/02/12 09:52:52;;;;;;;33.70;9.70;;;;;;;-2.03;91.89;100763.88;5010941;28;20135;-59
2022/02/12 09:55:18;;;;;;;38.95;9.40;;;;;;;-2.20;92.67;100767.84;5010552;28;20176;-58
2022/02/12 09:57:44;;;;;;;40.05;8.18;;;;;;;-2.11;93.11;100761.03;5010742;28;20483;-59
2022/02/12 10:00:11;;;;;;;32.80;9.55;;;;;;;-2.14;93.14;100756.88;5026108;28;20029;-59
2022/02/12 10:02:37;;;;;;;99.00;9.48;;;;;;;-2.12;92.32;100770.72;5008445;28;20131;-60
2022/02/12 10:05:30;;;;;;;29.98;9.48;;;;;;;-1.97;93.38;100769.47;5018952;28;20699;-59
2022/02/12 10:08:07;;;;;;;26.83;10.02;;;;;;;-1.90;94.13;100767.16;5009919;28;20073;-60
2022/02/12 10:10:35;;;;;;;61.30;10.25;;;;;;;-2.02;92.29;100771.66;5016375;28;20134;-58
2022/02/12 10:13:16;;;;;;;69.80;10.20;;;;;;;-1.87;90.55;100761.69;5022295;28;20034;-58
2022/02/12 10:15:49;;;;;;;77.03;10.77;;;;;;;-2.35;93.22;100759.41;5013749;28;20484;-58
2022/02/12 10:18:14;;;;;;;76.75;10.38;;;;;;;-2.40;93.68;100751.91;5010355;28;20428;-59
2022/02/12 10:20:41;;;;;;;49.05;11.57;;;;;;;-2.33;94.22;100751.41;5010273;28;20041;-59
2022/02/12 10:23:11;;;;;;;87.32;11.70;;;;;;;-2.53;93.68;100738.06;5015648;28;20087;-58
2022/02/12 10:25:37;;;;;;;40.17;12.23;;;;;;;-2.21;95.80;100739.94;5017165;28;20038;-59
2022/02/12 10:28:04;;;;;;;50.95;13.23;;;;;;;-1.57;95.86;100739.94;5012258;28;20026;-59
2022/02/12 10:30:30;;;;;;;40.22;14.23;;;;;;;-1.12;93.37;100747.56;5022256;28;20061;-59
2022/02/12 10:33:00;;;;;;;70.90;15.15;;;;;;;-1.41;90.52;100738.66;5009783;28;20042;-60
2022/02/12 10:35:25;;;;;;;54.50;15.27;;;;;;;-1.43;91.31;100743.22;5009065;28;20487;-59
2022/02/12 10:37:51;;;;;;;51.67;15.90;;;;;;;-1.57;93.18;100742.56;5010215;28;20031;-59
2022/02/12 10:40:16;;;;;;;57.55;15.20;;;;;;;-1.02;91.45;100734.47;5018166;28;20029;-59
2022/02/12 10:42:46;;;;;;;42.05;15.55;;;;;;;-1.25;90.79;100736.41;5015157;28;20033;-59
2022/02/12 10:45:17;;;;;;;40.13;16.20;;;;;;;-1.12;92.88;100731.78;5021665;28;20040;-59
2022/02/12 10:47:45;;;;;;;41.60;16.77;;;;;;;-0.64;89.26;100722.44;5013393;28;20065;-59
2022/02/12 10:50:11;;;;;;;61.70;17.95;;;;;;;-0.72;88.65;100719.66;5017296;28;20036;-59
2022/02/12 10:52:46;;;;;;;53.65;21.20;;;;;;;-0.28;88.03;100718.38;5014148;28;20030;-59
2022/02/12 10:55:40;;;;;;;47.10;19.00;;;;;;;0.99;85.90;100718.31;5016309;28;20056;-59
2022/02/12 10:58:10;;;;;;;50.30;22.27;;;;;;;0.80;83.79;100709.47;5009255;28;20558;-59
2022/02/12 11:00:37;;;;;;;54.80;22.73;;;;;;;1.25;81.77;100711.41;5021848;28;20824;-59
2022/02/12 11:03:05;;;;;;;45.95;21.40;;;;;;;1.60;80.28;100704.56;5013632;28;20380;-59
2022/02/12 11:05:32;;;;;;;47.97;22.40;;;;;;;1.21;80.90;100701.28;5012002;28;20100;-59
2022/02/12 11:07:57;;;;;;;49.35;22.63;;;;;;;2.44;77.33;100699.88;5021917;28;20047;-59